Aviation Digital Data Service (ADDS)

Output produced by METARs form (0307 UTC 18 August 2017)
found at http://www.aviationweather.gov/adds/metars/
 
SUCA 172200Z XXXXXKT CAVOK 16/12 Q1012
TAF SUCA 171730Z 1718/1818 34008KT CAVOK TX23/1818Z TN07/1810Z 
     PROB40 
     TEMPO 1803/1814 35008KT 3000 BR BKN008 
     PROB30 
     TEMPO 1806/1813 0800 BCFG
       
TAF SUDU 171730Z 1718/1818 35010KT CAVOK TX23/1818Z TN07/1810Z 
     TEMPO 1803/1814 3000 BR BKN008 
     PROB40 
     TEMPO 1806/1813 0800 FG OVC003
       
SUMU 180300Z 36005KT CAVOK 12/09 Q1014 NOSIG
TAF SUMU 171755Z 1718/1818 34015KT CAVOK TX22/1818Z TN08/1810Z 
     PROB40 
     TEMPO 1803/1814 35008KT 3000 BR BKN008 
     PROB30 
     TEMPO 1806/1813 0800 BCFG
       
SUAA 172200Z 36005KT CAVOK 15/09 Q1014
TAF SUAA 171759Z 1718/1818 34015KT CAVOK TX22/1818Z TN08/1810Z 
     PROB40 
     TEMPO 1803/1814 35008KT 3000 BR BKN008 
     PROB30 
     TEMPO 1806/1813 0800 BCFG
       
SULS 180300Z 34012KT CAVOK 14/07 Q1015
TAF SULS 171730Z 1718/1818 34015KT CAVOK TX22/1818Z TN08/1810Z 
     PROB40 
     TEMPO 1803/1814 35008KT 3000 BR BKN008 
     PROB40 
     TEMPO 1806/1813 0800 FG OVC003
       
TAF SURV 172330Z 1800/1824 32005KT CAVOK TX25/1818Z TN07/1810Z 
     TEMPO 1802/1812 2000 BR BKN007 
     PROB40 
     TEMPO 1806/1812 0500 FG OVC003 
     BECMG 1812/1814 01010KT
       
TAF SUSO 172330Z 1800/1824 34005KT CAVOK TX25/1818Z TN07/1810Z 
     TEMPO 1802/1812 2000 BR BKN007 
     PROB40 
     TEMPO 1806/1812 0500 FG OVC003 
     BECMG 1812/1814 01010KT